createdAt,value
2019-03-25T00:00:15.775Z,4.80
2019-03-25T00:01:15.775Z,4.72
2019-03-25T00:02:15.769Z,4.75
2019-03-25T00:03:15.798Z,4.76
2019-03-25T00:04:15.759Z,4.70
2019-03-25T00:05:15.758Z,4.75
2019-03-25T00:06:15.750Z,4.83
2019-03-25T00:07:15.749Z,4.67
2019-03-25T00:08:15.773Z,4.73
2019-03-25T00:09:15.740Z,4.54
2019-03-25T00:10:15.742Z,4.51
2019-03-25T00:11:15.761Z,4.57
2019-03-25T00:12:15.729Z,4.52
2019-03-25T00:13:15.725Z,4.42
2019-03-25T00:14:15.748Z,4.44
2019-03-25T00:15:15.725Z,4.34
2019-03-25T00:16:15.715Z,4.28
2019-03-25T00:17:15.729Z,4.25
2019-03-25T00:18:15.707Z,4.21
2019-03-25T00:19:15.727Z,4.15
2019-03-25T00:20:15.702Z,4.16
2019-03-25T00:21:15.692Z,4.19
2019-03-25T00:22:15.690Z,4.08
2019-03-25T00:23:15.686Z,4.01
2019-03-25T00:24:15.707Z,4.08
2019-03-25T00:25:15.675Z,3.97
2019-03-25T00:26:15.666Z,3.96
2019-03-25T00:27:15.670Z,3.92
2019-03-25T00:28:15.664Z,3.89
2019-03-25T00:29:15.687Z,3.75
2019-03-25T00:30:15.650Z,3.80
2019-03-25T00:31:15.647Z,3.80
2019-03-25T00:32:15.646Z,3.68
2019-03-25T00:33:15.639Z,3.72
2019-03-25T00:34:15.748Z,3.72
2019-03-25T00:35:15.631Z,3.57
2019-03-25T00:36:15.628Z,3.70
2019-03-25T00:37:15.624Z,3.67
2019-03-25T00:38:15.614Z,3.53
2019-03-25T00:39:15.645Z,3.62
2019-03-25T00:40:15.611Z,3.57
2019-03-25T00:41:15.605Z,3.53
2019-03-25T00:42:15.599Z,3.58
2019-03-25T00:43:15.623Z,3.57
2019-03-25T00:44:15.590Z,3.53
2019-03-25T00:45:15.583Z,3.54
2019-03-25T00:46:15.614Z,3.52
2019-03-25T00:47:15.578Z,3.49
2019-03-25T00:48:15.575Z,3.49
2019-03-25T00:49:15.594Z,3.49
2019-03-25T00:50:15.562Z,3.46
2019-03-25T00:51:15.557Z,3.44
2019-03-25T00:52:15.550Z,3.44
2019-03-25T00:53:15.546Z,3.43
2019-03-25T00:54:15.573Z,3.34
2019-03-25T00:55:15.542Z,3.36
2019-03-25T00:56:15.527Z,3.27
2019-03-25T00:57:15.535Z,3.31
2019-03-25T00:58:15.523Z,3.31
2019-03-25T00:59:15.542Z,3.33
2019-03-25T01:00:15.506Z,3.31
2019-03-25T01:01:15.507Z,3.28
2019-03-25T01:02:15.504Z,3.28
2019-03-25T01:03:15.494Z,3.28
2019-03-25T01:04:15.518Z,3.28
2019-03-25T01:05:15.491Z,3.30
2019-03-25T01:06:15.487Z,3.24
2019-03-25T01:07:15.478Z,3.23
2019-03-25T01:08:15.474Z,3.18
2019-03-25T01:09:15.499Z,3.16
2019-03-25T01:10:15.461Z,3.27
2019-03-25T01:11:15.457Z,3.20
2019-03-25T01:12:15.451Z,3.16
2019-03-25T01:13:15.446Z,3.16
2019-03-25T01:14:15.511Z,3.18
2019-03-25T01:15:15.442Z,3.24
2019-03-25T01:16:15.431Z,3.20
2019-03-25T01:17:15.426Z,3.21
2019-03-25T01:18:17.052Z,3.13
2019-03-25T01:19:15.445Z,3.21
2019-03-25T01:20:15.445Z,3.24
2019-03-25T01:21:15.409Z,3.18
2019-03-25T01:22:15.402Z,3.23
2019-03-25T01:23:15.398Z,3.23
2019-03-25T01:24:15.423Z,3.15
2019-03-25T01:25:15.386Z,3.20
2019-03-25T01:26:15.383Z,3.12
2019-03-25T01:27:15.377Z,3.09
2019-03-25T01:28:15.368Z,3.05
2019-03-25T01:29:15.390Z,3.07
2019-03-25T01:30:15.369Z,2.98
2019-03-25T01:31:15.358Z,3.03
2019-03-25T01:32:15.354Z,2.97
2019-03-25T01:33:15.349Z,2.95
2019-03-25T01:34:15.369Z,2.98
2019-03-25T01:35:15.336Z,3.00
2019-03-25T01:36:15.333Z,3.05
2019-03-25T01:37:15.326Z,3.05
2019-03-25T01:38:15.323Z,3.06
2019-03-25T01:39:15.405Z,2.98
2019-03-25T01:40:15.310Z,2.98
2019-03-25T01:41:15.302Z,3.05
2019-03-25T01:42:15.307Z,3.09
2019-03-25T01:43:15.291Z,3.02
2019-03-25T01:44:15.320Z,3.03
2019-03-25T01:45:15.286Z,2.97
2019-03-25T01:46:15.281Z,2.91
2019-03-25T01:47:15.271Z,2.92
2019-03-25T01:48:15.267Z,2.94
2019-03-25T01:49:15.294Z,2.88
2019-03-25T01:50:15.259Z,2.84
2019-03-25T01:51:15.254Z,2.84
2019-03-25T01:52:15.245Z,2.81
2019-03-25T01:53:15.250Z,2.89
2019-03-25T01:54:15.266Z,2.95
2019-03-25T01:55:15.234Z,2.92
2019-03-25T01:56:15.226Z,2.81
2019-03-25T01:57:15.222Z,2.84
2019-03-25T01:58:15.219Z,2.74
2019-03-25T01:59:15.314Z,2.70
2019-03-25T02:00:15.206Z,2.74
2019-03-25T02:01:15.205Z,2.64
2019-03-25T02:02:15.202Z,2.69
2019-03-25T02:03:15.186Z,2.69
2019-03-25T02:04:15.215Z,2.67
2019-03-25T02:05:15.179Z,2.66
2019-03-25T02:06:15.178Z,2.61
2019-03-25T02:07:15.169Z,2.67
2019-03-25T02:08:15.171Z,2.69
2019-03-25T02:09:15.191Z,2.79
2019-03-25T02:10:15.151Z,2.79
2019-03-25T02:11:15.148Z,2.74
2019-03-25T02:12:15.142Z,2.85
2019-03-25T02:13:15.138Z,2.92
2019-03-25T02:14:15.164Z,2.89
2019-03-25T02:15:15.127Z,2.88
2019-03-25T02:16:15.126Z,2.84
2019-03-25T02:17:15.119Z,2.89
2019-03-25T02:18:15.110Z,2.87
2019-03-25T02:19:15.143Z,2.87
2019-03-25T02:20:25.856Z,2.87
2019-03-25T02:21:15.097Z,2.85
2019-03-25T02:22:15.087Z,2.91
2019-03-25T02:23:15.087Z,2.84
2019-03-25T02:24:15.172Z,2.92
2019-03-25T02:25:24.893Z,2.97
2019-03-25T02:26:15.075Z,2.95
2019-03-25T02:27:15.065Z,3.03
2019-03-25T02:28:15.059Z,3.02
2019-03-25T02:29:15.090Z,3.03
2019-03-25T02:30:15.054Z,3.03
2019-03-25T02:31:15.047Z,3.02
2019-03-25T02:32:15.039Z,3.02
2019-03-25T02:33:15.034Z,3.09
2019-03-25T02:34:15.055Z,3.05
2019-03-25T02:35:15.033Z,3.10
2019-03-25T02:36:15.023Z,3.07
2019-03-25T02:37:15.021Z,2.97
2019-03-25T02:38:15.012Z,3.02
2019-03-25T02:39:15.032Z,3.02
2019-03-25T02:40:15.023Z,3.09
2019-03-25T02:41:14.995Z,3.03
2019-03-25T02:42:14.990Z,3.03
2019-03-25T02:43:14.988Z,3.02
2019-03-25T02:44:14.978Z,3.06
2019-03-25T02:45:15.005Z,3.05
2019-03-25T02:46:14.972Z,3.02
2019-03-25T02:47:14.964Z,3.05
2019-03-25T02:48:14.961Z,3.03
2019-03-25T02:49:14.955Z,2.97
2019-03-25T02:50:14.983Z,2.98
2019-03-25T02:51:14.939Z,2.97
2019-03-25T02:52:14.937Z,2.85
2019-03-25T02:53:14.941Z,2.92
2019-03-25T02:54:14.935Z,2.89
2019-03-25T02:55:14.955Z,2.76
2019-03-25T02:56:14.923Z,2.77
2019-03-25T02:57:14.913Z,2.74
2019-03-25T02:58:14.909Z,2.76
2019-03-25T02:59:14.898Z,2.73
2019-03-25T03:00:14.928Z,2.77
2019-03-25T03:01:14.894Z,2.67
2019-03-25T03:02:14.895Z,2.66
2019-03-25T03:03:14.887Z,2.67
2019-03-25T03:04:14.883Z,2.67
2019-03-25T03:05:14.897Z,2.73
2019-03-25T03:06:14.877Z,2.66
2019-03-25T03:07:14.863Z,2.73
2019-03-25T03:08:14.863Z,2.64
2019-03-25T03:09:14.850Z,2.66
2019-03-25T03:10:14.877Z,2.67
2019-03-25T03:11:14.842Z,2.67
2019-03-25T03:12:14.832Z,2.61
2019-03-25T03:13:14.843Z,2.69
2019-03-25T03:14:15.458Z,2.61
2019-03-25T03:15:14.856Z,2.58
2019-03-25T03:16:14.812Z,2.67
2019-03-25T03:17:14.817Z,2.63
2019-03-25T03:18:14.812Z,2.69
2019-03-25T03:19:14.807Z,2.66
2019-03-25T03:20:14.830Z,2.61
2019-03-25T03:21:14.789Z,2.69
2019-03-25T03:22:14.787Z,2.59
2019-03-25T03:23:14.803Z,2.52
2019-03-25T03:24:14.773Z,2.53
2019-03-25T03:25:14.790Z,2.58
2019-03-25T03:26:14.763Z,2.61
2019-03-25T03:27:14.775Z,2.66
2019-03-25T03:28:14.761Z,2.71
2019-03-25T03:29:14.749Z,2.59
2019-03-25T03:30:36.595Z,2.55
2019-03-25T03:31:14.739Z,2.59
2019-03-25T03:32:14.738Z,2.69
2019-03-25T03:33:14.728Z,2.66
2019-03-25T03:34:14.719Z,2.59
2019-03-25T03:35:14.750Z,2.53
2019-03-25T03:36:14.705Z,2.51
2019-03-25T03:37:14.711Z,2.48
2019-03-25T03:38:14.695Z,2.35
2019-03-25T03:39:14.699Z,2.37
2019-03-25T03:40:14.712Z,2.34
2019-03-25T03:41:14.710Z,2.28
2019-03-25T03:42:14.677Z,2.27
2019-03-25T03:43:14.677Z,2.26
2019-03-25T03:44:14.666Z,2.26
2019-03-25T03:45:14.663Z,2.27
2019-03-25T03:46:14.682Z,2.33
2019-03-25T03:47:14.651Z,2.34
2019-03-25T03:48:14.644Z,2.58
2019-03-25T03:49:14.641Z,2.64
2019-03-25T03:50:14.633Z,2.67
2019-03-25T03:51:14.656Z,2.59
2019-03-25T03:52:14.622Z,2.48
2019-03-25T03:53:14.617Z,2.46
2019-03-25T03:54:14.614Z,2.34
2019-03-25T03:55:14.613Z,2.28
2019-03-25T03:56:14.719Z,2.12
2019-03-25T03:57:14.603Z,2.12
2019-03-25T03:58:14.591Z,2.09
2019-03-25T03:59:14.584Z,1.98
2019-03-25T04:00:14.585Z,1.94
2019-03-25T04:01:14.601Z,1.90
2019-03-25T04:02:14.569Z,1.87
2019-03-25T04:03:14.566Z,1.75
2019-03-25T04:04:14.557Z,1.90
2019-03-25T04:05:14.555Z,1.82
2019-03-25T04:06:14.576Z,1.82
2019-03-25T04:07:14.543Z,1.90
2019-03-25T04:08:14.537Z,1.93
2019-03-25T04:09:14.530Z,1.98
2019-03-25T04:10:14.525Z,1.82
2019-03-25T04:11:14.545Z,1.83
2019-03-25T04:12:14.512Z,1.83
2019-03-25T04:13:14.507Z,1.90
2019-03-25T04:14:14.694Z,1.79
2019-03-25T04:15:14.501Z,1.79
2019-03-25T04:16:14.517Z,1.80
2019-03-25T04:17:14.481Z,1.69
2019-03-25T04:18:14.481Z,1.64
2019-03-25T04:19:14.484Z,1.73
2019-03-25T04:20:14.470Z,1.71
2019-03-25T04:21:14.491Z,1.69
2019-03-25T04:22:14.461Z,1.80
2019-03-25T04:23:14.458Z,1.79
2019-03-25T04:24:14.449Z,1.75
2019-03-25T04:25:14.440Z,1.79
2019-03-25T04:26:27.756Z,1.85
2019-03-25T04:27:14.430Z,1.91
2019-03-25T04:28:14.425Z,1.83
2019-03-25T04:29:14.416Z,1.85
2019-03-25T04:30:14.417Z,1.93
2019-03-25T04:31:14.435Z,2.06
2019-03-25T04:32:14.405Z,2.01
2019-03-25T04:33:14.396Z,2.06
2019-03-25T04:34:14.389Z,2.09
2019-03-25T04:35:14.387Z,2.12
2019-03-25T04:36:14.403Z,2.13
2019-03-25T04:37:14.378Z,2.17
2019-03-25T04:38:14.367Z,2.26
2019-03-25T04:39:14.364Z,2.38
2019-03-25T04:40:14.389Z,2.35
2019-03-25T04:41:14.350Z,2.45
2019-03-25T04:42:14.382Z,2.51
2019-03-25T04:43:14.348Z,2.71
2019-03-25T04:44:14.332Z,2.84
2019-03-25T04:45:14.326Z,3.00
2019-03-25T04:46:14.351Z,3.02
2019-03-25T04:47:14.316Z,2.98
2019-03-25T04:48:14.312Z,3.06
2019-03-25T04:49:14.306Z,3.16
2019-03-25T04:50:14.307Z,3.15
2019-03-25T04:51:14.331Z,3.25
2019-03-25T04:52:14.287Z,3.21
2019-03-25T04:53:14.283Z,3.25
2019-03-25T04:54:14.281Z,3.28
2019-03-25T04:55:14.275Z,3.27
2019-03-25T04:56:14.295Z,3.31
2019-03-25T04:57:14.263Z,3.25
2019-03-25T04:58:14.262Z,3.30
2019-03-25T04:59:14.253Z,3.40
2019-03-25T05:00:14.244Z,3.39
2019-03-25T05:01:14.272Z,3.36
2019-03-25T05:02:14.264Z,3.40
2019-03-25T05:03:14.232Z,3.46
2019-03-25T05:04:14.223Z,3.36
2019-03-25T05:05:14.236Z,3.50
2019-03-25T05:06:14.271Z,3.43
2019-03-25T05:07:14.236Z,3.46
2019-03-25T05:08:14.204Z,3.52
2019-03-25T05:09:14.199Z,3.68
2019-03-25T05:10:14.195Z,3.49
2019-03-25T05:11:14.191Z,3.52
2019-03-25T05:12:14.216Z,3.67
2019-03-25T05:13:14.180Z,3.54
2019-03-25T05:14:14.176Z,3.67
2019-03-25T05:15:14.170Z,3.65
2019-03-25T05:16:14.163Z,3.75
2019-03-25T05:17:14.190Z,3.85
2019-03-25T05:18:14.152Z,3.96
2019-03-25T05:19:14.150Z,3.92
2019-03-25T05:20:14.146Z,3.88
2019-03-25T05:21:14.139Z,3.83
2019-03-25T05:22:14.163Z,3.88
2019-03-25T05:23:14.133Z,3.88
2019-03-25T05:24:14.128Z,3.86
2019-03-25T05:25:14.118Z,3.92
2019-03-25T05:26:14.114Z,3.86
2019-03-25T05:27:14.142Z,3.64
2019-03-25T05:28:14.122Z,3.62
2019-03-25T05:29:14.095Z,3.82
2019-03-25T05:30:14.105Z,3.75
2019-03-25T05:31:14.131Z,3.78
2019-03-25T05:32:14.120Z,3.80
2019-03-25T05:33:14.083Z,3.79
2019-03-25T05:34:14.093Z,3.82
2019-03-25T05:35:14.078Z,3.90
2019-03-25T05:36:14.071Z,3.97
2019-03-25T05:37:14.094Z,3.90
2019-03-25T05:38:14.059Z,3.89
2019-03-25T05:39:14.054Z,4.04
2019-03-25T05:40:14.058Z,3.97
2019-03-25T05:41:14.042Z,3.88
2019-03-25T05:42:14.071Z,3.96
2019-03-25T05:43:14.037Z,3.97
2019-03-25T05:44:14.035Z,4.00
2019-03-25T05:45:14.025Z,4.04
2019-03-25T05:46:14.021Z,4.03
2019-03-25T05:47:14.037Z,4.06
2019-03-25T05:48:14.018Z,4.08
2019-03-25T05:49:14.005Z,4.08
2019-03-25T05:50:14.001Z,4.08
2019-03-25T05:51:13.996Z,4.18
2019-03-25T05:52:14.018Z,4.18
2019-03-25T05:53:13.989Z,4.15
2019-03-25T05:54:13.985Z,4.07
2019-03-25T05:55:13.983Z,4.14
2019-03-25T05:56:13.974Z,4.15
2019-03-25T05:57:13.997Z,4.15
2019-03-25T05:58:13.967Z,4.16
2019-03-25T05:59:13.961Z,4.12
2019-03-25T06:00:13.956Z,4.08
2019-03-25T06:01:13.955Z,4.03
2019-03-25T06:02:13.978Z,4.10
2019-03-25T06:03:13.947Z,3.89
2019-03-25T06:04:13.943Z,3.90
2019-03-25T06:05:13.940Z,3.96
2019-03-25T06:06:14.793Z,3.88
2019-03-25T06:07:13.952Z,3.88
2019-03-25T06:08:13.921Z,4.03
2019-03-25T06:09:13.958Z,3.94
2019-03-25T06:10:13.917Z,3.90
2019-03-25T06:11:13.908Z,3.97
2019-03-25T06:12:13.927Z,3.96
2019-03-25T06:13:13.896Z,3.96
2019-03-25T06:14:13.893Z,3.92
2019-03-25T06:15:13.889Z,4.06
2019-03-25T06:16:13.890Z,3.98
2019-03-25T06:17:13.912Z,3.97
2019-03-25T06:18:13.905Z,4.10
2019-03-25T06:19:13.873Z,4.12
2019-03-25T06:20:13.867Z,4.14
2019-03-25T06:21:13.862Z,4.18
2019-03-25T06:22:13.859Z,4.21
2019-03-25T06:23:13.885Z,4.18
2019-03-25T06:24:13.845Z,4.24
2019-03-25T06:25:13.844Z,4.21
2019-03-25T06:26:13.995Z,4.19
2019-03-25T06:27:14.641Z,4.22
2019-03-25T06:28:13.860Z,4.29
2019-03-25T06:29:13.830Z,4.36
2019-03-25T06:30:13.824Z,4.33
2019-03-25T06:31:13.816Z,4.37
2019-03-25T06:32:13.812Z,4.37
2019-03-25T06:33:13.835Z,4.40
2019-03-25T06:34:13.800Z,4.47
2019-03-25T06:35:13.813Z,4.52
2019-03-25T06:36:13.795Z,4.42
2019-03-25T06:37:13.792Z,4.42
2019-03-25T06:38:13.816Z,4.39
2019-03-25T06:39:13.811Z,4.55
2019-03-25T06:40:13.780Z,4.52
2019-03-25T06:41:13.775Z,4.51
2019-03-25T06:42:13.768Z,4.52
2019-03-25T06:43:13.771Z,4.50
2019-03-25T06:44:13.788Z,4.55
2019-03-25T06:45:13.761Z,4.58
2019-03-25T06:46:13.825Z,4.52
2019-03-25T06:47:13.754Z,4.67
2019-03-25T06:48:13.742Z,4.76
2019-03-25T06:49:13.768Z,4.65
2019-03-25T06:50:13.737Z,4.84
2019-03-25T06:51:13.732Z,5.02
2019-03-25T06:52:13.727Z,5.13
2019-03-25T06:53:13.731Z,5.31
2019-03-25T06:54:13.752Z,6.14
2019-03-25T06:55:13.720Z,6.21
2019-03-25T06:56:13.711Z,5.91
2019-03-25T06:57:24.982Z,5.92
2019-03-25T06:58:13.702Z,5.70
2019-03-25T06:59:13.724Z,5.63
2019-03-25T07:00:13.705Z,5.52
2019-03-25T07:01:13.695Z,5.49
2019-03-25T07:02:13.692Z,5.31
2019-03-25T07:03:13.684Z,5.30
2019-03-25T07:04:13.712Z,5.27
2019-03-25T07:05:13.683Z,5.28
2019-03-25T07:06:13.774Z,5.12
2019-03-25T07:07:13.671Z,5.10
2019-03-25T07:08:13.673Z,5.13
2019-03-25T07:09:13.699Z,5.13
2019-03-25T07:10:13.662Z,5.12
2019-03-25T07:11:13.668Z,5.12
2019-03-25T07:12:13.650Z,5.13
2019-03-25T07:13:13.656Z,5.10
2019-03-25T07:14:13.679Z,5.16
2019-03-25T07:15:13.650Z,5.14
2019-03-25T07:16:13.644Z,5.10
2019-03-25T07:17:13.635Z,5.10
2019-03-25T07:18:13.634Z,5.01
2019-03-25T07:19:13.664Z,5.07
2019-03-25T07:20:13.630Z,5.04
2019-03-25T07:21:13.622Z,4.96
2019-03-25T07:22:13.618Z,4.98
2019-03-25T07:23:13.618Z,5.07
2019-03-25T07:24:13.638Z,4.98
2019-03-25T07:25:13.610Z,5.09
2019-03-25T07:26:13.607Z,5.10
2019-03-25T07:27:13.602Z,5.07
2019-03-25T07:28:13.600Z,4.91
2019-03-25T07:29:13.619Z,5.01
2019-03-25T07:30:13.591Z,4.96
2019-03-25T07:31:13.590Z,4.99
2019-03-25T07:32:13.582Z,4.95
2019-03-25T07:33:13.580Z,4.89
2019-03-25T07:34:13.605Z,4.94
2019-03-25T07:35:13.569Z,4.98
2019-03-25T07:36:13.570Z,4.96
2019-03-25T07:37:13.564Z,4.95
2019-03-25T07:38:13.557Z,4.77
2019-03-25T07:39:13.584Z,4.98
2019-03-25T07:40:13.545Z,4.86
2019-03-25T07:41:13.551Z,4.88
2019-03-25T07:42:13.545Z,4.83
2019-03-25T07:43:13.541Z,4.77
2019-03-25T07:44:13.571Z,4.64
2019-03-25T07:45:13.529Z,4.58
2019-03-25T07:46:13.525Z,4.51
2019-03-25T07:47:13.525Z,4.59
2019-03-25T07:48:13.517Z,4.59
2019-03-25T07:49:13.545Z,4.67
2019-03-25T07:50:13.535Z,4.62
2019-03-25T07:51:13.511Z,4.65
2019-03-25T07:52:13.501Z,4.61
2019-03-25T07:53:13.509Z,4.65
2019-03-25T07:54:13.497Z,4.52
2019-03-25T07:55:13.521Z,4.43
2019-03-25T07:56:13.507Z,4.47
2019-03-25T07:57:13.485Z,4.43
2019-03-25T07:58:13.491Z,4.37
2019-03-25T07:59:13.473Z,4.42
2019-03-25T08:00:14.155Z,4.36
2019-03-25T08:01:13.490Z,4.37
2019-03-25T08:02:15.250Z,4.42
2019-03-25T08:03:13.461Z,4.40
2019-03-25T08:04:13.454Z,4.42
2019-03-25T08:05:13.473Z,4.34
2019-03-25T08:06:13.455Z,4.40
2019-03-25T08:07:13.436Z,4.37
2019-03-25T08:08:13.440Z,4.33
2019-03-25T08:09:13.458Z,4.39
2019-03-25T08:10:13.479Z,4.40
2019-03-25T08:11:13.441Z,4.50
2019-03-25T08:12:13.447Z,4.52
2019-03-25T08:13:13.480Z,4.46
2019-03-25T08:14:13.413Z,4.54
2019-03-25T08:15:13.448Z,4.52
2019-03-25T08:16:13.400Z,4.54
2019-03-25T08:17:13.397Z,4.62
2019-03-25T08:18:13.394Z,4.73
2019-03-25T08:19:13.392Z,4.80
2019-03-25T08:20:13.408Z,4.95
2019-03-25T08:21:13.376Z,4.95
2019-03-25T08:22:13.378Z,5.23
2019-03-25T08:23:13.372Z,5.27
2019-03-25T08:24:13.366Z,5.30
2019-03-25T08:25:13.396Z,5.41
2019-03-25T08:26:13.400Z,5.52
2019-03-25T08:27:13.356Z,5.75
2019-03-25T08:28:13.352Z,6.16
2019-03-25T08:29:13.351Z,6.76
2019-03-25T08:30:13.377Z,7.52
2019-03-25T08:31:13.344Z,8.26
2019-03-25T08:32:13.339Z,8.53
2019-03-25T08:33:13.336Z,8.62
2019-03-25T08:34:13.338Z,8.42
2019-03-25T08:35:13.359Z,7.99
2019-03-25T08:36:13.332Z,7.58
2019-03-25T08:37:13.331Z,7.17
2019-03-25T08:38:13.327Z,6.90
2019-03-25T08:39:13.332Z,6.80
2019-03-25T08:40:13.355Z,6.79
2019-03-25T08:41:13.328Z,6.73
2019-03-25T08:42:13.327Z,6.68
2019-03-25T08:43:13.324Z,6.63
2019-03-25T08:44:13.325Z,6.56
2019-03-25T08:45:13.351Z,6.62
2019-03-25T08:46:13.322Z,6.59
2019-03-25T08:47:13.319Z,7.32
2019-03-25T08:48:13.318Z,7.63
2019-03-25T08:49:13.320Z,7.72
2019-03-25T08:50:13.344Z,7.60
2019-03-25T08:51:13.339Z,7.38
2019-03-25T08:52:13.313Z,7.04
2019-03-25T08:53:13.311Z,6.90
2019-03-25T08:54:13.307Z,6.79
2019-03-25T08:55:13.308Z,7.59
2019-03-25T08:56:13.335Z,8.55
2019-03-25T08:57:13.310Z,8.84
2019-03-25T08:58:13.306Z,8.53
2019-03-25T08:59:13.306Z,8.10
2019-03-25T09:00:13.303Z,7.97
2019-03-25T09:01:13.331Z,7.74
2019-03-25T09:02:13.307Z,7.50
2019-03-25T09:03:13.302Z,7.44
2019-03-25T09:04:13.303Z,7.34
2019-03-25T09:05:13.309Z,7.37
2019-03-25T09:06:13.330Z,7.26
2019-03-25T09:07:13.304Z,7.22
2019-03-25T09:08:13.298Z,7.27
2019-03-25T09:09:13.298Z,7.24
2019-03-25T09:10:13.299Z,7.08
2019-03-25T09:11:13.323Z,6.97
2019-03-25T09:12:13.294Z,7.02
2019-03-25T09:13:13.294Z,7.02
2019-03-25T09:14:13.291Z,7.02
2019-03-25T09:15:13.291Z,7.08
2019-03-25T09:16:13.311Z,6.98
2019-03-25T09:17:13.287Z,7.02
2019-03-25T09:18:13.286Z,7.01
2019-03-25T09:19:13.287Z,7.22
2019-03-25T09:20:13.286Z,7.23
2019-03-25T09:21:13.311Z,7.31
2019-03-25T09:22:13.283Z,7.23
2019-03-25T09:23:13.282Z,7.13
2019-03-25T09:24:13.279Z,7.49
2019-03-25T09:25:13.284Z,7.60
2019-03-25T09:26:13.302Z,7.35
2019-03-25T09:27:13.287Z,7.17
2019-03-25T09:28:23.802Z,7.13
2019-03-25T09:29:13.272Z,7.37
2019-03-25T09:30:13.271Z,7.34
2019-03-25T09:31:13.303Z,7.29
2019-03-25T09:32:13.272Z,7.67
2019-03-25T09:33:13.267Z,7.62
2019-03-25T09:34:13.272Z,7.45
2019-03-25T09:35:13.302Z,7.85
2019-03-25T09:36:13.268Z,7.84
2019-03-25T09:37:13.314Z,7.84
2019-03-25T09:38:13.262Z,7.79
2019-03-25T09:39:13.261Z,7.74
2019-03-25T09:40:13.264Z,7.77
2019-03-25T09:41:13.291Z,7.94
2019-03-25T09:42:13.258Z,8.03
2019-03-25T09:43:13.254Z,8.07
2019-03-25T09:44:13.257Z,8.10
2019-03-25T09:45:13.257Z,7.99
2019-03-25T09:46:13.406Z,8.02
2019-03-25T09:47:13.255Z,8.14
2019-03-25T09:48:13.260Z,7.92
2019-03-25T09:49:13.253Z,8.65
2019-03-25T09:50:13.254Z,8.75
2019-03-25T09:51:13.285Z,8.78
2019-03-25T09:52:13.257Z,8.79
2019-03-25T09:53:13.253Z,8.94
2019-03-25T09:54:13.255Z,9.66
2019-03-25T09:55:13.260Z,9.99
2019-03-25T09:56:13.286Z,10.53
2019-03-25T09:57:13.286Z,10.73
2019-03-25T09:58:13.257Z,10.66
2019-03-25T09:59:13.262Z,11.36
2019-03-25T10:00:13.261Z,10.80
2019-03-25T10:01:13.266Z,11.16
2019-03-25T10:02:13.295Z,11.72
2019-03-25T10:03:13.268Z,12.41
2019-03-25T10:04:13.273Z,12.51
2019-03-25T10:05:13.277Z,12.37
2019-03-25T10:06:13.309Z,11.65
2019-03-25T10:07:13.309Z,11.07
2019-03-25T10:08:13.289Z,11.25
2019-03-25T10:09:13.294Z,11.82
2019-03-25T10:10:13.304Z,12.16
2019-03-25T10:11:13.336Z,12.74
2019-03-25T10:12:13.309Z,13.04
2019-03-25T10:13:13.324Z,12.84
2019-03-25T10:14:13.329Z,11.89
2019-03-25T10:15:13.329Z,12.02
2019-03-25T10:16:13.360Z,12.15
2019-03-25T10:17:13.339Z,11.96
2019-03-25T10:18:13.348Z,12.02
2019-03-25T10:19:13.355Z,12.45
2019-03-25T10:20:13.360Z,12.48
2019-03-25T10:21:13.400Z,12.26
2019-03-25T10:22:13.375Z,12.37
2019-03-25T10:23:13.383Z,12.44
2019-03-25T10:24:13.406Z,12.57
2019-03-25T10:25:13.396Z,12.96
2019-03-25T10:26:13.439Z,12.59
2019-03-25T10:27:13.440Z,11.65
2019-03-25T10:28:13.427Z,11.47
2019-03-25T10:29:13.428Z,12.38
2019-03-25T10:30:13.434Z,12.08
2019-03-25T10:31:13.479Z,11.72
2019-03-25T10:32:13.477Z,12.09
2019-03-25T10:33:13.462Z,12.41
2019-03-25T10:34:13.464Z,12.23
2019-03-25T10:35:13.472Z,12.16
2019-03-25T10:36:13.479Z,12.20
2019-03-25T10:37:13.518Z,12.54
2019-03-25T10:38:19.590Z,12.88
2019-03-25T10:39:13.506Z,12.51
2019-03-25T10:40:13.507Z,11.46
2019-03-25T10:41:13.554Z,10.94
2019-03-25T10:42:13.552Z,11.24
2019-03-25T10:43:13.539Z,11.29
2019-03-25T10:44:13.607Z,10.83
2019-03-25T10:45:13.587Z,10.47
2019-03-25T10:46:13.566Z,10.40
2019-03-25T10:47:13.556Z,10.21
2019-03-25T10:48:13.597Z,10.03
2019-03-25T10:49:16.099Z,9.97
2019-03-25T10:50:13.572Z,10.19
2019-03-25T10:51:13.576Z,10.80
2019-03-25T10:52:13.608Z,10.96
2019-03-25T10:53:13.603Z,10.66
2019-03-25T10:54:13.580Z,10.40
2019-03-25T10:55:13.600Z,10.28
2019-03-25T10:56:13.591Z,10.17
2019-03-25T10:57:13.598Z,9.99
2019-03-25T10:58:13.625Z,9.66
2019-03-25T10:59:13.600Z,9.53
2019-03-25T11:00:13.601Z,9.30
2019-03-25T11:01:13.600Z,9.12
2019-03-25T11:02:13.604Z,9.25
2019-03-25T11:03:13.635Z,9.21
2019-03-25T11:04:13.607Z,9.27
2019-03-25T11:05:13.616Z,9.40
2019-03-25T11:06:13.615Z,9.86
2019-03-25T11:07:13.626Z,10.65
2019-03-25T11:08:13.642Z,10.86
2019-03-25T11:09:13.629Z,11.38
2019-03-25T11:10:13.619Z,11.32
2019-03-25T11:11:13.620Z,11.20
2019-03-25T11:12:13.643Z,10.91
2019-03-25T11:13:13.647Z,10.78
2019-03-25T11:14:13.625Z,10.42
2019-03-25T11:15:13.630Z,10.19
2019-03-25T11:16:13.631Z,9.82
2019-03-25T11:17:13.627Z,9.53
2019-03-25T11:18:13.658Z,9.27
2019-03-25T11:19:13.636Z,9.16
2019-03-25T11:20:13.651Z,9.12
2019-03-25T11:21:13.639Z,9.12
2019-03-25T11:22:13.640Z,9.09
2019-03-25T11:23:13.667Z,9.25
2019-03-25T11:24:15.163Z,9.39
2019-03-25T11:25:13.651Z,9.58
2019-03-25T11:26:13.860Z,9.94
2019-03-25T11:27:13.651Z,10.37
2019-03-25T11:28:13.678Z,10.70
2019-03-25T11:29:13.647Z,11.07
2019-03-25T11:30:13.652Z,10.84
2019-03-25T11:31:13.643Z,11.20
2019-03-25T11:32:13.645Z,11.35
2019-03-25T11:33:13.675Z,11.47
2019-03-25T11:34:13.652Z,12.13
2019-03-25T11:35:13.657Z,11.72
2019-03-25T11:36:13.655Z,11.53
2019-03-25T11:37:13.656Z,11.50
2019-03-25T11:38:13.693Z,11.01
2019-03-25T11:39:13.663Z,10.55
2019-03-25T11:40:13.662Z,10.14
2019-03-25T11:41:13.668Z,10.17
2019-03-25T11:42:13.668Z,10.04
2019-03-25T11:43:13.672Z,9.78
2019-03-25T11:44:13.697Z,9.64
2019-03-25T11:45:13.674Z,9.27
2019-03-25T11:46:13.681Z,9.04
2019-03-25T11:47:13.675Z,8.91
2019-03-25T11:48:13.678Z,9.01
2019-03-25T11:49:13.707Z,8.83
2019-03-25T11:50:13.679Z,8.94
2019-03-25T11:51:13.679Z,9.01
2019-03-25T11:52:13.679Z,9.06
2019-03-25T11:53:13.674Z,9.39
2019-03-25T11:54:13.700Z,9.53
2019-03-25T11:55:13.686Z,9.58
2019-03-25T11:56:13.679Z,9.76
2019-03-25T11:57:13.682Z,9.64
2019-03-25T11:58:13.680Z,9.99
2019-03-25T11:59:18.575Z,10.00
2019-03-25T12:00:13.680Z,10.33
2019-03-25T12:01:13.681Z,10.89
2019-03-25T12:02:17.513Z,11.09
2019-03-25T12:03:13.680Z,11.71
2019-03-25T12:04:13.711Z,12.04
2019-03-25T12:05:13.688Z,11.93
2019-03-25T12:06:13.692Z,11.72
2019-03-25T12:07:13.688Z,11.24
2019-03-25T12:08:13.698Z,11.20
2019-03-25T12:09:13.723Z,10.70
2019-03-25T12:10:13.987Z,10.37
2019-03-25T12:11:13.704Z,10.36
2019-03-25T12:12:13.707Z,10.28
2019-03-25T12:13:13.708Z,10.19
2019-03-25T12:14:13.740Z,10.10
2019-03-25T12:15:13.712Z,10.19
2019-03-25T12:16:13.712Z,10.33
2019-03-25T12:17:13.716Z,10.18
2019-03-25T12:18:13.749Z,10.21
2019-03-25T12:19:13.753Z,10.56
2019-03-25T12:20:13.720Z,10.32
2019-03-25T12:21:14.331Z,10.55
2019-03-25T12:22:13.717Z,10.36
2019-03-25T12:23:14.333Z,9.85
2019-03-25T12:24:13.752Z,9.66
2019-03-25T12:25:13.719Z,9.40
2019-03-25T12:26:13.727Z,9.20
2019-03-25T12:27:13.754Z,9.04
2019-03-25T12:28:13.728Z,8.75
2019-03-25T12:29:13.760Z,8.63
2019-03-25T12:30:13.757Z,8.55
2019-03-25T12:31:13.732Z,8.60
2019-03-25T12:32:13.729Z,8.79
2019-03-25T12:33:13.734Z,9.15
2019-03-25T12:34:13.846Z,9.82
2019-03-25T12:35:13.733Z,10.24
2019-03-25T12:36:13.730Z,10.04
2019-03-25T12:37:13.735Z,10.24
2019-03-25T12:38:13.740Z,9.82
2019-03-25T12:39:13.763Z,9.32
2019-03-25T12:40:13.736Z,9.10
2019-03-25T12:41:13.740Z,8.96
2019-03-25T12:42:13.739Z,8.58
2019-03-25T12:43:13.744Z,8.55
2019-03-25T12:44:13.778Z,8.36
2019-03-25T12:45:13.753Z,8.29
2019-03-25T12:46:13.748Z,8.32
2019-03-25T12:47:13.747Z,8.44
2019-03-25T12:48:13.751Z,8.35
2019-03-25T12:49:13.777Z,8.21
2019-03-25T12:50:13.746Z,8.10
2019-03-25T12:51:13.760Z,7.97
2019-03-25T12:52:13.759Z,7.81
2019-03-25T12:53:14.341Z,7.69
2019-03-25T12:54:13.959Z,7.52
2019-03-25T12:55:13.749Z,7.29
2019-03-25T12:56:13.755Z,7.37
2019-03-25T12:57:13.748Z,7.29
2019-03-25T12:58:13.747Z,7.32
2019-03-25T12:59:13.772Z,7.19
2019-03-25T13:00:13.742Z,7.23
2019-03-25T13:01:13.747Z,7.17
2019-03-25T13:02:13.743Z,6.84
2019-03-25T13:03:13.836Z,6.66
2019-03-25T13:04:13.767Z,6.66
2019-03-25T13:05:13.736Z,6.54
2019-03-25T13:06:13.740Z,6.51
2019-03-25T13:07:13.739Z,6.58
2019-03-25T13:08:13.728Z,6.51
2019-03-25T13:09:13.760Z,6.51
2019-03-25T13:10:13.730Z,6.54
2019-03-25T13:11:13.728Z,6.46
2019-03-25T13:12:13.725Z,6.47
2019-03-25T13:13:13.722Z,6.36
2019-03-25T13:14:13.748Z,6.36